createdAt,value
2022-08-20T00:02:15.367Z,62.10
2022-08-20T00:04:43.985Z,62.10
2022-08-20T00:07:12.679Z,62.10
2022-08-20T00:09:41.656Z,62.10
2022-08-20T00:12:12.243Z,62.10
2022-08-20T00:14:41.962Z,62.20
2022-08-20T00:17:10.163Z,62.20
2022-08-20T00:19:38.296Z,62.20
2022-08-20T00:22:06.664Z,62.20
2022-08-20T00:24:35.079Z,62.20
2022-08-20T00:27:03.407Z,62.20
2022-08-20T00:29:32.115Z,62.20
2022-08-20T00:32:01.866Z,62.10
2022-08-20T00:34:30.233Z,62.20
2022-08-20T00:36:58.403Z,62.20
2022-08-20T00:39:26.566Z,62.20
2022-08-20T00:41:54.951Z,62.20
2022-08-20T00:44:24.340Z,62.20
2022-08-20T00:46:54.127Z,62.20
2022-08-20T00:49:27.949Z,62.20
2022-08-20T00:52:01.133Z,62.20
2022-08-20T00:54:32.144Z,62.20
2022-08-20T00:57:03.880Z,62.20
2022-08-20T00:59:34.073Z,62.20
2022-08-20T01:02:03.321Z,62.20
2022-08-20T01:04:35.246Z,62.20
2022-08-20T01:07:05.380Z,62.20
2022-08-20T01:09:49.905Z,62.20
2022-08-20T01:12:24.085Z,62.20
2022-08-20T01:14:52.462Z,62.20
2022-08-20T01:17:25.485Z,62.20
2022-08-20T01:19:59.438Z,62.30
2022-08-20T01:23:15.212Z,62.30
2022-08-20T01:25:49.196Z,62.30
2022-08-20T01:28:21.772Z,62.30
2022-08-20T01:30:50.019Z,62.30
2022-08-20T01:33:18.996Z,62.30
2022-08-20T01:35:47.463Z,62.30
2022-08-20T01:38:15.902Z,62.30
2022-08-20T01:40:58.280Z,62.30
2022-08-20T01:43:26.835Z,62.30
2022-08-20T01:45:55.618Z,62.30
2022-08-20T01:48:24.736Z,62.30
2022-08-20T01:51:02.127Z,62.30
2022-08-20T01:53:35.673Z,62.30
2022-08-20T01:56:06.992Z,62.40
2022-08-20T01:58:37.241Z,62.40
2022-08-20T02:01:05.558Z,62.40
2022-08-20T02:03:38.816Z,62.40
2022-08-20T02:06:08.072Z,62.40
2022-08-20T02:08:36.204Z,62.40
2022-08-20T02:11:05.939Z,62.40
2022-08-20T02:13:34.124Z,62.40
2022-08-20T02:16:02.304Z,62.40
2022-08-20T02:18:30.487Z,62.40
2022-08-20T02:20:58.785Z,62.40
2022-08-20T02:23:26.953Z,62.40
2022-08-20T02:25:55.408Z,62.40
2022-08-20T02:28:24.962Z,62.40
2022-08-20T02:30:56.286Z,62.40
2022-08-20T02:33:25.098Z,62.40
2022-08-20T02:35:56.946Z,62.40
2022-08-20T02:38:25.934Z,62.40
2022-08-20T02:40:54.236Z,62.40
2022-08-20T02:43:22.348Z,62.40
2022-08-20T02:45:51.881Z,62.40
2022-08-20T02:48:23.110Z,62.50
2022-08-20T02:50:53.410Z,62.40
2022-08-20T02:53:22.400Z,62.50
2022-08-20T02:55:50.933Z,62.50
2022-08-20T02:58:20.030Z,62.40
2022-08-20T03:00:48.355Z,62.50
2022-08-20T03:03:22.372Z,62.40
2022-08-20T03:05:52.695Z,62.50
2022-08-20T03:08:21.695Z,62.50
2022-08-20T03:10:50.969Z,62.40
2022-08-20T03:13:20.250Z,62.40
2022-08-20T03:15:50.459Z,62.40
2022-08-20T03:18:21.272Z,62.40
2022-08-20T03:20:51.386Z,62.40
2022-08-20T03:23:21.079Z,62.50
2022-08-20T03:25:49.898Z,62.50
2022-08-20T03:28:18.784Z,62.50
2022-08-20T03:30:47.276Z,62.50
2022-08-20T03:33:16.395Z,62.40
2022-08-20T03:35:46.024Z,62.50
2022-08-20T03:38:16.181Z,62.50
2022-08-20T03:40:45.524Z,62.50
2022-08-20T03:43:14.735Z,62.50
2022-08-20T03:45:45.655Z,62.50
2022-08-20T03:48:16.276Z,62.50
2022-08-20T03:50:48.053Z,62.40
2022-08-20T03:53:16.683Z,62.40
2022-08-20T03:55:53.829Z,62.40
2022-08-20T03:58:34.580Z,62.40
2022-08-20T04:01:05.472Z,62.50
2022-08-20T04:03:34.024Z,62.50
2022-08-20T04:06:03.570Z,62.50
2022-08-20T04:08:31.673Z,62.50
2022-08-20T04:11:00.410Z,63.10
2022-08-20T04:13:30.490Z,62.50
2022-08-20T04:15:59.069Z,62.50
2022-08-20T04:18:27.567Z,62.50
2022-08-20T04:20:55.863Z,62.50
2022-08-20T04:23:25.488Z,62.50
2022-08-20T04:25:56.627Z,62.50
2022-08-20T04:28:27.009Z,62.50
2022-08-20T04:30:56.619Z,62.50
2022-08-20T04:33:33.788Z,62.50
2022-08-20T04:36:05.950Z,62.50
2022-08-20T04:38:48.468Z,62.50
2022-08-20T04:41:22.998Z,62.50
2022-08-20T04:43:53.074Z,62.40
2022-08-20T04:46:23.896Z,62.50
2022-08-20T04:48:51.912Z,62.50
2022-08-20T04:51:24.309Z,62.50
2022-08-20T04:53:56.215Z,62.50
2022-08-20T04:56:31.006Z,62.50
2022-08-20T04:59:01.852Z,62.50
2022-08-20T05:01:30.311Z,62.50
2022-08-20T05:03:59.261Z,62.50
2022-08-20T05:06:29.960Z,62.50
2022-08-20T05:09:00.296Z,62.50
2022-08-20T05:11:32.926Z,62.50
2022-08-20T05:14:03.449Z,62.50
2022-08-20T05:16:37.725Z,62.50
2022-08-20T05:19:06.581Z,63.10
2022-08-20T05:21:34.698Z,62.50
2022-08-20T05:24:04.661Z,62.50
2022-08-20T05:26:33.332Z,62.50
2022-08-20T05:29:02.693Z,62.50
2022-08-20T05:31:33.351Z,62.50
2022-08-20T05:34:02.532Z,62.50
2022-08-20T05:36:30.895Z,62.50
2022-08-20T05:38:59.118Z,62.50
2022-08-20T05:41:30.277Z,62.50
2022-08-20T05:44:01.405Z,62.50
2022-08-20T05:46:31.266Z,62.50
2022-08-20T05:49:01.459Z,62.60
2022-08-20T05:51:30.816Z,62.60
2022-08-20T05:53:59.042Z,62.50
2022-08-20T05:56:31.251Z,62.50
2022-08-20T05:59:01.913Z,62.60
2022-08-20T06:01:30.174Z,62.40
2022-08-20T06:04:16.127Z,62.50
2022-08-20T06:06:46.891Z,62.40
2022-08-20T06:09:30.678Z,62.50
2022-08-20T06:12:03.447Z,62.40
2022-08-20T06:14:32.340Z,62.40
2022-08-20T06:17:07.835Z,62.50
2022-08-20T06:19:37.705Z,62.40
2022-08-20T06:22:17.667Z,62.50
2022-08-20T06:24:48.565Z,62.40
2022-08-20T06:27:19.080Z,62.40
2022-08-20T06:29:47.695Z,62.50
2022-08-20T06:32:16.575Z,62.50
2022-08-20T06:34:50.061Z,62.50
2022-08-20T06:37:21.471Z,62.40
2022-08-20T06:39:49.454Z,63.10
2022-08-20T06:42:20.665Z,62.40
2022-08-20T06:44:49.504Z,62.40
2022-08-20T06:47:18.421Z,62.50
2022-08-20T06:49:47.500Z,62.40
2022-08-20T06:52:17.136Z,62.50
2022-08-20T06:54:45.712Z,62.40
2022-08-20T06:57:13.926Z,62.50
2022-08-20T06:59:43.525Z,62.40
2022-08-20T07:02:17.087Z,62.30
2022-08-20T07:04:45.437Z,62.30
2022-08-20T07:07:17.690Z,62.30
2022-08-20T07:09:46.889Z,62.30
2022-08-20T07:12:15.077Z,62.30
2022-08-20T07:14:44.522Z,62.20
2022-08-20T07:17:12.984Z,62.20
2022-08-20T07:19:41.087Z,62.20
2022-08-20T07:22:09.209Z,62.20
2022-08-20T07:24:41.174Z,62.10
2022-08-20T07:27:10.278Z,62.10
2022-08-20T07:29:55.716Z,62.10
2022-08-20T07:32:39.383Z,62.20
2022-08-20T07:35:11.098Z,62.10
2022-08-20T07:37:41.392Z,62.00
2022-08-20T07:40:14.207Z,62.10
2022-08-20T07:42:42.472Z,62.10
2022-08-20T07:45:13.697Z,62.10
2022-08-20T07:47:43.974Z,62.00
2022-08-20T07:50:15.610Z,62.00
2022-08-20T07:52:45.617Z,62.00
2022-08-20T07:55:16.398Z,62.00
2022-08-20T07:57:47.532Z,61.90
2022-08-20T08:00:17.844Z,62.00
2022-08-20T08:02:47.699Z,62.00
2022-08-20T08:05:18.338Z,61.90
2022-08-20T08:07:46.966Z,61.80
2022-08-20T08:10:19.512Z,61.80
2022-08-20T08:12:51.671Z,61.80
2022-08-20T08:15:23.031Z,61.80
2022-08-20T08:17:55.259Z,61.80
2022-08-20T08:20:23.972Z,61.80
2022-08-20T08:22:53.822Z,61.80
2022-08-20T08:25:22.254Z,61.80
2022-08-20T08:27:50.362Z,61.80
2022-08-20T08:30:18.926Z,61.70
2022-08-20T08:33:04.660Z,61.70
2022-08-20T08:35:34.270Z,61.70
2022-08-20T08:38:02.766Z,61.70
2022-08-20T08:40:31.896Z,61.70
2022-08-20T08:43:04.073Z,61.70
2022-08-20T08:45:43.814Z,61.60
2022-08-20T08:48:18.280Z,61.60
2022-08-20T08:50:54.359Z,61.60
2022-08-20T08:53:27.017Z,61.60
2022-08-20T08:55:55.549Z,61.60
2022-08-20T08:58:23.817Z,61.60
2022-08-20T09:00:56.095Z,61.50
2022-08-20T09:03:29.349Z,61.40
2022-08-20T09:06:01.063Z,61.40
2022-08-20T09:08:33.420Z,61.30
2022-08-20T09:11:07.400Z,61.30
2022-08-20T09:13:36.168Z,61.40
2022-08-20T09:16:04.631Z,61.30
2022-08-20T09:18:32.826Z,61.30
2022-08-20T09:21:02.467Z,61.30
2022-08-20T09:23:30.708Z,61.20
2022-08-20T09:25:59.341Z,61.30
2022-08-20T09:28:32.267Z,61.30
2022-08-20T09:31:04.357Z,61.30
2022-08-20T09:33:32.907Z,61.20
2022-08-20T09:36:02.410Z,61.10
2022-08-20T09:38:30.868Z,61.20
2022-08-20T09:40:59.105Z,61.20
2022-08-20T09:43:27.291Z,61.20
2022-08-20T09:45:55.442Z,61.10
2022-08-20T09:48:31.956Z,61.00
2022-08-20T09:51:00.520Z,61.10
2022-08-20T09:53:31.417Z,61.10
2022-08-20T09:56:00.199Z,61.10
2022-08-20T09:58:35.126Z,61.10
2022-08-20T10:01:07.839Z,61.10
2022-08-20T10:03:42.248Z,61.00
2022-08-20T10:06:11.330Z,60.90
2022-08-20T10:08:40.994Z,60.90
2022-08-20T10:11:09.669Z,60.90
2022-08-20T10:13:37.831Z,60.80
2022-08-20T10:16:06.408Z,60.80
2022-08-20T10:18:35.336Z,60.80
2022-08-20T10:21:03.709Z,60.60
2022-08-20T10:23:31.841Z,60.70
2022-08-20T10:26:04.653Z,60.60
2022-08-20T10:28:32.793Z,60.60
2022-08-20T10:31:01.104Z,60.80
2022-08-20T10:33:29.295Z,60.50
2022-08-20T10:36:00.060Z,60.50
2022-08-20T10:38:28.485Z,60.40
2022-08-20T10:40:56.685Z,60.40
2022-08-20T10:43:26.311Z,60.40
2022-08-20T10:45:54.530Z,60.30
2022-08-20T10:48:23.139Z,60.40
2022-08-20T10:50:51.523Z,60.30
2022-08-20T10:53:19.916Z,60.20
2022-08-20T10:55:48.266Z,60.10
2022-08-20T10:58:16.441Z,60.20
2022-08-20T11:00:47.258Z,60.10
2022-08-20T11:03:15.372Z,60.10
2022-08-20T11:05:43.647Z,60.10
2022-08-20T11:08:11.880Z,60.10
2022-08-20T11:10:41.148Z,60.20
2022-08-20T11:13:12.133Z,60.10
2022-08-20T11:15:42.982Z,60.00
2022-08-20T11:18:14.104Z,60.00
2022-08-20T11:20:42.615Z,59.90
2022-08-20T11:23:10.780Z,59.90
2022-08-20T11:25:38.939Z,59.90
2022-08-20T11:28:08.386Z,59.80
2022-08-20T11:30:38.331Z,59.90
2022-08-20T11:33:06.943Z,59.90
2022-08-20T11:35:48.875Z,59.80
2022-08-20T11:38:19.031Z,59.80
2022-08-20T11:40:47.785Z,59.80
2022-08-20T11:43:17.249Z,59.80
2022-08-20T11:45:47.387Z,59.80
2022-08-20T11:48:15.832Z,59.80
2022-08-20T11:50:45.527Z,59.80
2022-08-20T11:53:14.844Z,59.80
2022-08-20T11:55:43.311Z,59.70
2022-08-20T11:58:12.376Z,59.70
2022-08-20T12:00:40.569Z,59.80
2022-08-20T12:03:10.437Z,59.70
2022-08-20T12:05:40.830Z,59.70
2022-08-20T12:08:27.568Z,59.70
2022-08-20T12:10:57.801Z,59.70
2022-08-20T12:13:47.315Z,59.70
2022-08-20T12:16:15.219Z,59.60
2022-08-20T12:18:43.457Z,59.60
2022-08-20T12:21:11.776Z,59.50
2022-08-20T12:23:41.613Z,59.50
2022-08-20T12:26:09.879Z,59.50
2022-08-20T12:28:38.270Z,59.50
2022-08-20T12:31:06.670Z,59.60
2022-08-20T12:33:34.875Z,59.60
2022-08-20T12:36:03.102Z,59.50
2022-08-20T12:38:31.199Z,59.50
2022-08-20T12:41:01.258Z,59.50
2022-08-20T12:43:29.368Z,59.50
2022-08-20T12:45:57.549Z,59.50
2022-08-20T12:48:25.759Z,59.50
2022-08-20T12:50:53.896Z,59.60
2022-08-20T12:53:22.048Z,59.50
2022-08-20T12:55:50.207Z,59.50
2022-08-20T12:58:19.679Z,59.60
2022-08-20T13:00:50.959Z,59.60
2022-08-20T13:03:21.043Z,59.50
2022-08-20T13:05:51.256Z,59.60
2022-08-20T13:08:19.762Z,59.60
2022-08-20T13:10:48.372Z,59.60
2022-08-20T13:13:20.855Z,59.60
2022-08-20T13:15:49.989Z,59.60
2022-08-20T13:18:20.936Z,59.60
2022-08-20T13:20:49.318Z,59.60
2022-08-20T13:23:18.107Z,59.60
2022-08-20T13:25:46.387Z,59.60
2022-08-20T13:28:14.572Z,59.70
2022-08-20T13:30:44.143Z,59.60
2022-08-20T13:33:12.294Z,59.60
2022-08-20T13:35:40.406Z,59.60
2022-08-20T13:38:08.522Z,59.60
2022-08-20T13:40:40.154Z,59.60
2022-08-20T13:43:12.101Z,59.60
2022-08-20T13:45:42.193Z,59.60
2022-08-20T13:48:14.863Z,59.60
2022-08-20T13:50:47.405Z,59.60
2022-08-20T13:53:16.265Z,59.70
2022-08-20T13:55:44.751Z,59.60
2022-08-20T13:58:12.894Z,59.70
2022-08-20T14:00:41.084Z,59.60
2022-08-20T14:03:09.226Z,59.60
2022-08-20T14:05:39.575Z,59.60
2022-08-20T14:08:10.015Z,59.70
2022-08-20T14:10:38.892Z,59.80
2022-08-20T14:13:08.383Z,59.60
2022-08-20T14:15:39.307Z,59.60
2022-08-20T14:18:07.453Z,59.60
2022-08-20T14:20:35.966Z,59.70
2022-08-20T14:23:08.698Z,59.70
2022-08-20T14:25:37.159Z,59.70
2022-08-20T14:28:13.768Z,59.70
2022-08-20T14:30:42.593Z,59.70
2022-08-20T14:33:10.952Z,59.70
2022-08-20T14:35:39.204Z,59.70
2022-08-20T14:38:09.914Z,59.60
2022-08-20T14:40:37.886Z,59.70
2022-08-20T14:43:06.037Z,59.70
2022-08-20T14:45:34.278Z,59.60
2022-08-20T14:48:02.494Z,59.70
2022-08-20T14:50:33.602Z,59.70
2022-08-20T14:53:02.361Z,59.70
2022-08-20T14:55:35.849Z,59.80
2022-08-20T14:58:08.333Z,59.80
2022-08-20T15:00:36.759Z,59.80
2022-08-20T15:03:04.974Z,59.70
2022-08-20T15:05:39.677Z,59.80
2022-08-20T15:08:10.748Z,59.80
2022-08-20T15:10:41.290Z,59.80
2022-08-20T15:13:09.977Z,59.80
2022-08-20T15:15:39.411Z,59.70
2022-08-20T15:18:08.419Z,59.70
2022-08-20T15:20:37.771Z,59.70
2022-08-20T15:23:05.936Z,59.70
2022-08-20T15:25:37.483Z,59.70
2022-08-20T15:28:09.368Z,59.70
2022-08-20T15:30:38.907Z,59.70
2022-08-20T15:33:07.066Z,59.60
2022-08-20T15:35:35.235Z,59.70
2022-08-20T15:38:03.436Z,59.60
2022-08-20T15:40:34.288Z,59.70
2022-08-20T15:43:04.035Z,59.70
2022-08-20T15:45:34.798Z,59.70
2022-08-20T15:48:06.373Z,59.70
2022-08-20T15:51:01.717Z,59.70
2022-08-20T15:53:36.414Z,59.70
2022-08-20T15:56:11.457Z,59.70
2022-08-20T15:58:47.601Z,59.70
2022-08-20T16:01:25.819Z,59.50
2022-08-20T16:04:24.423Z,59.50
2022-08-20T16:06:57.993Z,59.50
2022-08-20T16:09:42.032Z,59.50
2022-08-20T16:12:12.609Z,59.70
2022-08-20T16:14:42.781Z,59.60
2022-08-20T16:17:16.702Z,59.60
2022-08-20T16:19:53.014Z,59.60
2022-08-20T16:22:21.600Z,59.60
2022-08-20T16:24:50.916Z,59.50
2022-08-20T16:27:28.721Z,59.60
2022-08-20T16:30:03.067Z,59.60
2022-08-20T16:32:40.895Z,59.70
2022-08-20T16:35:29.697Z,59.50
2022-08-20T16:38:07.920Z,59.50
2022-08-20T16:40:44.473Z,59.50
2022-08-20T16:43:22.435Z,59.50
2022-08-20T16:45:54.842Z,59.50
2022-08-20T16:48:28.328Z,59.50
2022-08-20T16:51:02.596Z,59.40
2022-08-20T16:53:30.988Z,59.50
2022-08-20T16:55:59.128Z,59.40
2022-08-20T16:58:27.353Z,59.50
2022-08-20T17:01:07.853Z,59.40
2022-08-20T17:03:39.765Z,59.40
2022-08-20T17:06:19.383Z,59.40
2022-08-20T17:08:51.226Z,59.40
2022-08-20T17:11:26.311Z,59.50
2022-08-20T17:14:12.183Z,59.40
2022-08-20T17:16:46.300Z,59.40
2022-08-20T17:19:20.164Z,59.40
2022-08-20T17:21:50.650Z,59.40
2022-08-20T17:24:25.344Z,59.40
2022-08-20T17:27:00.019Z,59.40
2022-08-20T17:29:31.937Z,59.40
2022-08-20T17:32:02.172Z,59.40
2022-08-20T17:34:34.123Z,59.40
2022-08-20T17:37:08.328Z,59.40
2022-08-20T17:39:46.097Z,59.30
2022-08-20T17:42:19.056Z,59.40
2022-08-20T17:44:52.133Z,59.30
2022-08-20T17:47:30.315Z,59.30
2022-08-20T17:50:05.615Z,59.30
2022-08-20T17:52:42.811Z,59.30
2022-08-20T17:55:12.964Z,59.30
2022-08-20T17:57:45.350Z,59.30
2022-08-20T18:00:17.309Z,59.30
2022-08-20T18:02:45.423Z,59.30
2022-08-20T18:05:20.055Z,59.40
2022-08-20T18:08:08.557Z,59.30
2022-08-20T18:10:43.448Z,59.30
2022-08-20T18:13:16.210Z,59.30
2022-08-20T18:15:51.419Z,59.30
2022-08-20T18:18:29.413Z,59.30
2022-08-20T18:21:27.467Z,59.30
2022-08-20T18:24:02.108Z,59.40
2022-08-20T18:26:35.591Z,59.30
2022-08-20T18:29:10.190Z,59.30
2022-08-20T18:31:45.456Z,59.20
2022-08-20T18:34:15.959Z,59.30
2022-08-20T18:36:55.829Z,59.30
2022-08-20T18:39:28.775Z,59.30
2022-08-20T18:42:00.913Z,59.20
2022-08-20T18:44:37.217Z,59.30
2022-08-20T18:47:07.627Z,59.30
2022-08-20T18:49:39.265Z,59.20
2022-08-20T18:52:14.525Z,59.30
2022-08-20T18:54:50.260Z,59.30
2022-08-20T18:57:22.208Z,59.30
2022-08-20T18:59:57.206Z,59.30
2022-08-20T19:02:29.910Z,59.30
2022-08-20T19:05:02.260Z,59.30
2022-08-20T19:07:45.812Z,59.30
2022-08-20T19:10:47.362Z,59.30
2022-08-20T19:13:53.725Z,59.40
2022-08-20T19:16:27.775Z,59.30
2022-08-20T19:18:56.987Z,59.30
2022-08-20T19:21:30.408Z,59.30
2022-08-20T19:24:04.663Z,59.30
2022-08-20T19:26:41.470Z,59.30
2022-08-20T19:29:14.049Z,59.30
2022-08-20T19:31:43.012Z,59.30
2022-08-20T19:34:20.272Z,59.40
2022-08-20T19:36:57.404Z,59.30
2022-08-20T19:39:28.876Z,59.30
2022-08-20T19:42:02.684Z,59.30
2022-08-20T19:44:37.517Z,59.40
2022-08-20T19:47:06.678Z,59.50
2022-08-20T19:49:46.304Z,59.30
2022-08-20T19:52:36.553Z,59.30
2022-08-20T19:55:16.209Z,59.30
2022-08-20T19:57:52.333Z,59.40
2022-08-20T20:00:21.359Z,59.40
2022-08-20T20:02:49.529Z,59.50
2022-08-20T20:05:18.347Z,59.40
2022-08-20T20:07:49.858Z,59.50
2022-08-20T20:10:32.701Z,59.50
2022-08-20T20:13:09.106Z,59.50
2022-08-20T20:15:38.784Z,59.40
2022-08-20T20:18:07.361Z,59.50
2022-08-20T20:20:38.533Z,59.50
2022-08-20T20:23:27.558Z,59.50
2022-08-20T20:26:16.465Z,59.50
2022-08-20T20:28:47.310Z,59.50
2022-08-20T20:31:22.504Z,59.40
2022-08-20T20:33:55.388Z,59.50
2022-08-20T20:36:36.578Z,59.50
2022-08-20T20:39:12.455Z,59.50
2022-08-20T20:41:52.543Z,59.50
2022-08-20T20:44:22.516Z,59.50
2022-08-20T20:46:53.964Z,59.50
2022-08-20T20:49:25.024Z,59.50
2022-08-20T20:52:00.503Z,59.50
2022-08-20T20:54:32.668Z,59.60
2022-08-20T20:57:05.170Z,59.50
2022-08-20T20:59:35.933Z,59.50
2022-08-20T21:02:04.209Z,59.50
2022-08-20T21:04:33.759Z,59.50
2022-08-20T21:07:08.067Z,59.50
2022-08-20T21:09:38.481Z,59.60
2022-08-20T21:12:09.680Z,59.60
2022-08-20T21:14:38.264Z,59.50
2022-08-20T21:17:10.308Z,59.60
2022-08-20T21:19:41.087Z,59.60
2022-08-20T21:22:13.540Z,59.60
2022-08-20T21:24:41.726Z,59.60
2022-08-20T21:27:12.419Z,59.60
2022-08-20T21:29:41.424Z,59.60
2022-08-20T21:32:12.366Z,59.60
2022-08-20T21:34:43.521Z,59.70
2022-08-20T21:37:13.011Z,59.70
2022-08-20T21:39:41.729Z,59.70
2022-08-20T21:42:21.613Z,59.70
2022-08-20T21:44:58.158Z,59.70
2022-08-20T21:47:26.703Z,59.70
2022-08-20T21:49:54.983Z,59.70
2022-08-20T21:52:23.135Z,59.70
2022-08-20T21:54:51.304Z,59.70
2022-08-20T21:57:22.888Z,59.70
2022-08-20T21:59:51.880Z,59.70
2022-08-20T22:02:21.720Z,59.70
2022-08-20T22:04:54.045Z,59.70
2022-08-20T22:07:23.151Z,59.70
2022-08-20T22:09:51.313Z,59.70
2022-08-20T22:12:24.510Z,59.70
2022-08-20T22:14:52.850Z,59.70
2022-08-20T22:17:21.560Z,59.70
2022-08-20T22:19:49.728Z,59.70
2022-08-20T22:22:17.956Z,59.70
2022-08-20T22:24:46.923Z,59.70
2022-08-20T22:27:15.288Z,59.70
2022-08-20T22:29:45.087Z,59.70
2022-08-20T22:32:14.941Z,59.70
2022-08-20T22:34:43.088Z,59.80
2022-08-20T22:37:12.109Z,59.70
2022-08-20T22:39:40.324Z,59.80
2022-08-20T22:42:08.840Z,59.80
2022-08-20T22:44:36.959Z,59.80
2022-08-20T22:47:09.444Z,59.80
2022-08-20T22:49:41.512Z,59.90
2022-08-20T22:52:11.458Z,59.80
2022-08-20T22:54:44.678Z,59.80
2022-08-20T22:57:13.452Z,59.80
2022-08-20T22:59:49.599Z,59.80
2022-08-20T23:02:23.742Z,59.80
2022-08-20T23:04:51.928Z,59.80
2022-08-20T23:07:20.539Z,59.80
2022-08-20T23:09:48.710Z,59.80
2022-08-20T23:12:16.827Z,59.80
2022-08-20T23:14:45.003Z,59.80
2022-08-20T23:17:17.516Z,60.50
2022-08-20T23:19:48.304Z,59.80
2022-08-20T23:22:16.886Z,59.80
2022-08-20T23:24:45.159Z,59.80
2022-08-20T23:27:19.956Z,59.80
2022-08-20T23:29:48.573Z,59.90
2022-08-20T23:32:16.715Z,59.90
2022-08-20T23:34:46.211Z,59.90
2022-08-20T23:37:18.827Z,59.90
2022-08-20T23:39:47.984Z,59.90
2022-08-20T23:42:17.222Z,59.90
2022-08-20T23:44:46.053Z,59.90
2022-08-20T23:47:19.327Z,59.90
2022-08-20T23:49:48.938Z,59.90
2022-08-20T23:52:17.346Z,59.90
2022-08-20T23:54:45.605Z,59.90
2022-08-20T23:57:13.909Z,59.90
2022-08-20T23:59:42.093Z,59.90
